sensor_id;sensor_type;location;lat;lon;timestamp;P1;durP1;ratioP1;P2;durP2;ratioP2
19929;SDS011;10127;47.780;9.606;2023-05-20T00:01:01;11.82;;;7.63;;
19929;SDS011;10127;47.780;9.606;2023-05-20T00:03:27;14.80;;;7.95;;
19929;SDS011;10127;47.780;9.606;2023-05-20T00:05:53;11.98;;;7.20;;
19929;SDS011;10127;47.780;9.606;2023-05-20T00:08:19;13.05;;;7.97;;
19929;SDS011;10127;47.780;9.606;2023-05-20T00:10:45;12.00;;;7.60;;
19929;SDS011;10127;47.780;9.606;2023-05-20T00:13:10;12.15;;;7.43;;
19929;SDS011;10127;47.780;9.606;2023-05-20T00:15:36;12.88;;;7.10;;
19929;SDS011;10127;47.780;9.606;2023-05-20T00:18:01;14.07;;;7.70;;
19929;SDS011;10127;47.780;9.606;2023-05-20T00:20:27;12.60;;;7.63;;
19929;SDS011;10127;47.780;9.606;2023-05-20T00:22:53;11.60;;;7.68;;
19929;SDS011;10127;47.780;9.606;2023-05-20T00:25:19;13.98;;;7.38;;
19929;SDS011;10127;47.780;9.606;2023-05-20T00:27:44;13.93;;;7.72;;
19929;SDS011;10127;47.780;9.606;2023-05-20T00:30:11;13.63;;;8.13;;
19929;SDS011;10127;47.780;9.606;2023-05-20T00:32:36;8.93;;;7.32;;
19929;SDS011;10127;47.780;9.606;2023-05-20T00:35:02;9.52;;;7.45;;
19929;SDS011;10127;47.780;9.606;2023-05-20T00:37:42;13.35;;;7.68;;
19929;SDS011;10127;47.780;9.606;2023-05-20T00:40:07;10.63;;;7.60;;
19929;SDS011;10127;47.780;9.606;2023-05-20T00:42:33;11.63;;;7.95;;
19929;SDS011;10127;47.780;9.606;2023-05-20T00:44:59;12.15;;;7.97;;
19929;SDS011;10127;47.780;9.606;2023-05-20T00:47:28;11.75;;;8.13;;
19929;SDS011;10127;47.780;9.606;2023-05-20T00:49:56;12.60;;;7.78;;
19929;SDS011;10127;47.780;9.606;2023-05-20T00:52:22;12.38;;;7.82;;
19929;SDS011;10127;47.780;9.606;2023-05-20T00:54:49;11.00;;;7.97;;
19929;SDS011;10127;47.780;9.606;2023-05-20T00:57:16;13.65;;;8.07;;
19929;SDS011;10127;47.780;9.606;2023-05-20T00:59:43;13.15;;;8.10;;
19929;SDS011;10127;47.780;9.606;2023-05-20T01:02:16;12.77;;;8.52;;
19929;SDS011;10127;47.780;9.606;2023-05-20T01:04:41;18.75;;;7.40;;
19929;SDS011;10127;47.780;9.606;2023-05-20T01:07:11;14.38;;;8.23;;
19929;SDS011;10127;47.780;9.606;2023-05-20T01:09:41;14.02;;;8.15;;
19929;SDS011;10127;47.780;9.606;2023-05-20T01:14:41;14.13;;;8.88;;
19929;SDS011;10127;47.780;9.606;2023-05-20T01:17:12;12.73;;;8.18;;
19929;SDS011;10127;47.780;9.606;2023-05-20T01:19:42;15.40;;;8.95;;
19929;SDS011;10127;47.780;9.606;2023-05-20T01:22:09;12.48;;;8.43;;
19929;SDS011;10127;47.780;9.606;2023-05-20T01:24:43;12.48;;;7.35;;
19929;SDS011;10127;47.780;9.606;2023-05-20T01:27:12;10.82;;;8.35;;
19929;SDS011;10127;47.780;9.606;2023-05-20T01:29:38;11.32;;;8.82;;
19929;SDS011;10127;47.780;9.606;2023-05-20T01:32:05;13.15;;;8.90;;
19929;SDS011;10127;47.780;9.606;2023-05-20T01:34:34;13.57;;;7.80;;
19929;SDS011;10127;47.780;9.606;2023-05-20T01:37:03;11.93;;;8.55;;
19929;SDS011;10127;47.780;9.606;2023-05-20T01:39:30;12.32;;;8.05;;
19929;SDS011;10127;47.780;9.606;2023-05-20T01:41:59;14.20;;;8.68;;
19929;SDS011;10127;47.780;9.606;2023-05-20T01:44:26;15.88;;;9.18;;
19929;SDS011;10127;47.780;9.606;2023-05-20T01:46:52;12.07;;;9.13;;
19929;SDS011;10127;47.780;9.606;2023-05-20T01:49:18;16.83;;;8.38;;
19929;SDS011;10127;47.780;9.606;2023-05-20T01:51:43;15.20;;;9.02;;
19929;SDS011;10127;47.780;9.606;2023-05-20T01:54:09;14.23;;;9.55;;
19929;SDS011;10127;47.780;9.606;2023-05-20T01:56:34;17.20;;;8.82;;
19929;SDS011;10127;47.780;9.606;2023-05-20T01:59:00;16.48;;;8.90;;
19929;SDS011;10127;47.780;9.606;2023-05-20T02:01:25;11.82;;;9.02;;
19929;SDS011;10127;47.780;9.606;2023-05-20T02:03:51;12.63;;;9.15;;
19929;SDS011;10127;47.780;9.606;2023-05-20T02:06:17;15.00;;;10.00;;
19929;SDS011;10127;47.780;9.606;2023-05-20T02:08:42;14.05;;;9.70;;
19929;SDS011;10127;47.780;9.606;2023-05-20T02:11:08;14.68;;;10.45;;
19929;SDS011;10127;47.780;9.606;2023-05-20T02:13:33;15.20;;;9.25;;
19929;SDS011;10127;47.780;9.606;2023-05-20T02:15:59;20.23;;;10.00;;
19929;SDS011;10127;47.780;9.606;2023-05-20T02:18:25;16.55;;;10.30;;
19929;SDS011;10127;47.780;9.606;2023-05-20T02:20:50;16.25;;;9.75;;
19929;SDS011;10127;47.780;9.606;2023-05-20T02:23:16;16.45;;;9.98;;
19929;SDS011;10127;47.780;9.606;2023-05-20T02:25:42;17.45;;;11.07;;
19929;SDS011;10127;47.780;9.606;2023-05-20T02:28:08;13.27;;;10.32;;
19929;SDS011;10127;47.780;9.606;2023-05-20T02:30:36;13.13;;;10.23;;
19929;SDS011;10127;47.780;9.606;2023-05-20T02:33:02;15.10;;;10.48;;
19929;SDS011;10127;47.780;9.606;2023-05-20T02:35:28;20.42;;;10.95;;
19929;SDS011;10127;47.780;9.606;2023-05-20T02:37:53;14.88;;;10.05;;
19929;SDS011;10127;47.780;9.606;2023-05-20T02:40:19;12.48;;;9.93;;
19929;SDS011;10127;47.780;9.606;2023-05-20T02:42:44;16.17;;;10.27;;
19929;SDS011;10127;47.780;9.606;2023-05-20T02:45:10;15.25;;;10.32;;
19929;SDS011;10127;47.780;9.606;2023-05-20T02:47:36;15.35;;;10.45;;
19929;SDS011;10127;47.780;9.606;2023-05-20T02:50:02;13.05;;;10.30;;
19929;SDS011;10127;47.780;9.606;2023-05-20T03:13:06;15.30;;;9.23;;
19929;SDS011;10127;47.780;9.606;2023-05-20T03:15:33;14.00;;;10.05;;
19929;SDS011;10127;47.780;9.606;2023-05-20T03:17:59;14.77;;;9.63;;
19929;SDS011;10127;47.780;9.606;2023-05-20T03:20:25;14.68;;;9.70;;
19929;SDS011;10127;47.780;9.606;2023-05-20T03:22:53;14.35;;;9.95;;
19929;SDS011;10127;47.780;9.606;2023-05-20T03:25:18;11.65;;;8.93;;
19929;SDS011;10127;47.780;9.606;2023-05-20T03:27:44;14.57;;;10.18;;
19929;SDS011;10127;47.780;9.606;2023-05-20T03:30:10;12.95;;;9.90;;
19929;SDS011;10127;47.780;9.606;2023-05-20T03:32:36;17.70;;;9.50;;
19929;SDS011;10127;47.780;9.606;2023-05-20T03:35:02;19.55;;;9.88;;
19929;SDS011;10127;47.780;9.606;2023-05-20T03:37:28;14.40;;;9.32;;
19929;SDS011;10127;47.780;9.606;2023-05-20T03:39:53;11.73;;;8.93;;
19929;SDS011;10127;47.780;9.606;2023-05-20T03:42:19;12.38;;;8.82;;
19929;SDS011;10127;47.780;9.606;2023-05-20T03:44:44;14.82;;;9.55;;
19929;SDS011;10127;47.780;9.606;2023-05-20T03:47:10;13.85;;;9.65;;
19929;SDS011;10127;47.780;9.606;2023-05-20T03:49:36;12.18;;;8.75;;
19929;SDS011;10127;47.780;9.606;2023-05-20T03:52:01;15.10;;;9.63;;
19929;SDS011;10127;47.780;9.606;2023-05-20T03:54:27;12.50;;;9.43;;
19929;SDS011;10127;47.780;9.606;2023-05-20T03:56:55;15.27;;;8.02;;
19929;SDS011;10127;47.780;9.606;2023-05-20T03:59:21;11.27;;;8.20;;
19929;SDS011;10127;47.780;9.606;2023-05-20T04:01:46;9.95;;;8.38;;
19929;SDS011;10127;47.780;9.606;2023-05-20T04:04:12;13.23;;;8.70;;
19929;SDS011;10127;47.780;9.606;2023-05-20T04:06:38;12.60;;;8.30;;
19929;SDS011;10127;47.780;9.606;2023-05-20T04:09:04;14.02;;;7.93;;
19929;SDS011;10127;47.780;9.606;2023-05-20T04:11:30;10.35;;;8.13;;
19929;SDS011;10127;47.780;9.606;2023-05-20T04:13:55;13.85;;;8.05;;
19929;SDS011;10127;47.780;9.606;2023-05-20T04:16:22;10.52;;;8.25;;
19929;SDS011;10127;47.780;9.606;2023-05-20T04:18:48;12.63;;;7.93;;
19929;SDS011;10127;47.780;9.606;2023-05-20T04:21:14;11.13;;;7.72;;
19929;SDS011;10127;47.780;9.606;2023-05-20T04:23:40;11.82;;;8.07;;
19929;SDS011;10127;47.780;9.606;2023-05-20T04:26:05;12.20;;;8.60;;
19929;SDS011;10127;47.780;9.606;2023-05-20T04:28:31;14.45;;;8.63;;
19929;SDS011;10127;47.780;9.606;2023-05-20T04:31:00;9.18;;;7.85;;
19929;SDS011;10127;47.780;9.606;2023-05-20T04:33:31;9.63;;;7.03;;
19929;SDS011;10127;47.780;9.606;2023-05-20T04:36:02;13.25;;;8.35;;
19929;SDS011;10127;47.780;9.606;2023-05-20T04:38:29;10.48;;;7.43;;
19929;SDS011;10127;47.780;9.606;2023-05-20T04:40:56;12.73;;;7.18;;
19929;SDS011;10127;47.780;9.606;2023-05-20T04:43:25;9.25;;;7.22;;
19929;SDS011;10127;47.780;9.606;2023-05-20T04:45:53;19.05;;;7.28;;
19929;SDS011;10127;47.780;9.606;2023-05-20T04:48:19;15.45;;;6.68;;
19929;SDS011;10127;47.780;9.606;2023-05-20T04:50:46;15.82;;;6.78;;
19929;SDS011;10127;47.780;9.606;2023-05-20T04:53:13;14.57;;;7.63;;
19929;SDS011;10127;47.780;9.606;2023-05-20T04:55:39;11.20;;;6.93;;
19929;SDS011;10127;47.780;9.606;2023-05-20T04:58:05;9.93;;;7.20;;
19929;SDS011;10127;47.780;9.606;2023-05-20T05:00:32;14.38;;;6.68;;
19929;SDS011;10127;47.780;9.606;2023-05-20T05:02:58;10.05;;;6.57;;
19929;SDS011;10127;47.780;9.606;2023-05-20T05:05:25;9.43;;;6.82;;
19929;SDS011;10127;47.780;9.606;2023-05-20T05:07:50;14.85;;;6.03;;
19929;SDS011;10127;47.780;9.606;2023-05-20T05:10:16;8.82;;;6.07;;
19929;SDS011;10127;47.780;9.606;2023-05-20T05:12:41;7.93;;;6.00;;
19929;SDS011;10127;47.780;9.606;2023-05-20T05:15:07;8.07;;;5.93;;
19929;SDS011;10127;47.780;9.606;2023-05-20T05:17:33;9.73;;;5.70;;
19929;SDS011;10127;47.780;9.606;2023-05-20T05:19:58;7.90;;;6.38;;
19929;SDS011;10127;47.780;9.606;2023-05-20T05:22:24;7.32;;;6.07;;
19929;SDS011;10127;47.780;9.606;2023-05-20T05:24:50;10.82;;;4.93;;
19929;SDS011;10127;47.780;9.606;2023-05-20T05:27:16;12.40;;;6.18;;
19929;SDS011;10127;47.780;9.606;2023-05-20T05:29:41;7.65;;;4.75;;
19929;SDS011;10127;47.780;9.606;2023-05-20T05:32:07;6.68;;;5.15;;
19929;SDS011;10127;47.780;9.606;2023-05-20T05:34:32;7.50;;;5.65;;
19929;SDS011;10127;47.780;9.606;2023-05-20T05:36:58;7.68;;;5.50;;
19929;SDS011;10127;47.780;9.606;2023-05-20T05:39:23;8.25;;;5.07;;
19929;SDS011;10127;47.780;9.606;2023-05-20T05:41:49;7.63;;;5.25;;
19929;SDS011;10127;47.780;9.606;2023-05-20T05:44:15;9.02;;;5.45;;
19929;SDS011;10127;47.780;9.606;2023-05-20T05:46:40;12.50;;;4.85;;
19929;SDS011;10127;47.780;9.606;2023-05-20T05:49:06;9.18;;;5.53;;
19929;SDS011;10127;47.780;9.606;2023-05-20T05:51:31;6.07;;;5.10;;
19929;SDS011;10127;47.780;9.606;2023-05-20T05:53:57;6.10;;;4.93;;
19929;SDS011;10127;47.780;9.606;2023-05-20T05:56:22;7.13;;;5.15;;
19929;SDS011;10127;47.780;9.606;2023-05-20T05:58:48;9.45;;;5.13;;
19929;SDS011;10127;47.780;9.606;2023-05-20T06:01:13;8.52;;;4.90;;
19929;SDS011;10127;47.780;9.606;2023-05-20T06:03:39;6.60;;;5.38;;
19929;SDS011;10127;47.780;9.606;2023-05-20T06:06:04;6.93;;;5.18;;
19929;SDS011;10127;47.780;9.606;2023-05-20T06:08:30;8.52;;;6.13;;
19929;SDS011;10127;47.780;9.606;2023-05-20T06:10:56;10.68;;;5.28;;
19929;SDS011;10127;47.780;9.606;2023-05-20T06:13:21;7.63;;;4.78;;
19929;SDS011;10127;47.780;9.606;2023-05-20T06:15:48;7.35;;;5.22;;
19929;SDS011;10127;47.780;9.606;2023-05-20T06:18:14;8.27;;;5.03;;
19929;SDS011;10127;47.780;9.606;2023-05-20T06:20:40;8.38;;;4.90;;
19929;SDS011;10127;47.780;9.606;2023-05-20T06:23:06;11.55;;;5.65;;
19929;SDS011;10127;47.780;9.606;2023-05-20T06:25:31;8.32;;;5.60;;
19929;SDS011;10127;47.780;9.606;2023-05-20T06:27:57;10.55;;;5.88;;
19929;SDS011;10127;47.780;9.606;2023-05-20T06:30:22;7.18;;;5.30;;
19929;SDS011;10127;47.780;9.606;2023-05-20T06:32:48;8.90;;;6.10;;
19929;SDS011;10127;47.780;9.606;2023-05-20T06:35:14;7.28;;;5.35;;
19929;SDS011;10127;47.780;9.606;2023-05-20T06:37:39;6.85;;;5.05;;
19929;SDS011;10127;47.780;9.606;2023-05-20T06:40:05;7.68;;;5.07;;
19929;SDS011;10127;47.780;9.606;2023-05-20T06:42:31;11.00;;;5.50;;
19929;SDS011;10127;47.780;9.606;2023-05-20T06:44:57;6.70;;;4.82;;
19929;SDS011;10127;47.780;9.606;2023-05-20T06:47:22;12.50;;;5.00;;
19929;SDS011;10127;47.780;9.606;2023-05-20T06:49:48;8.80;;;5.72;;
19929;SDS011;10127;47.780;9.606;2023-05-20T06:52:13;7.40;;;5.80;;
19929;SDS011;10127;47.780;9.606;2023-05-20T06:54:39;8.25;;;5.60;;
19929;SDS011;10127;47.780;9.606;2023-05-20T06:57:08;6.97;;;5.45;;
19929;SDS011;10127;47.780;9.606;2023-05-20T06:59:35;7.50;;;6.03;;
19929;SDS011;10127;47.780;9.606;2023-05-20T07:02:01;8.07;;;6.00;;
19929;SDS011;10127;47.780;9.606;2023-05-20T07:04:27;12.45;;;6.40;;
19929;SDS011;10127;47.780;9.606;2023-05-20T07:06:53;8.95;;;6.07;;
19929;SDS011;10127;47.780;9.606;2023-05-20T07:09:18;8.25;;;5.60;;
19929;SDS011;10127;47.780;9.606;2023-05-20T07:11:44;11.98;;;6.55;;
19929;SDS011;10127;47.780;9.606;2023-05-20T07:14:09;8.57;;;5.88;;
19929;SDS011;10127;47.780;9.606;2023-05-20T07:16:35;9.88;;;7.05;;
19929;SDS011;10127;47.780;9.606;2023-05-20T07:19:01;12.20;;;6.93;;
19929;SDS011;10127;47.780;9.606;2023-05-20T07:21:27;11.65;;;7.20;;
19929;SDS011;10127;47.780;9.606;2023-05-20T07:23:53;9.70;;;7.85;;
19929;SDS011;10127;47.780;9.606;2023-05-20T07:26:18;13.68;;;9.60;;
19929;SDS011;10127;47.780;9.606;2023-05-20T07:28:44;12.50;;;9.10;;
19929;SDS011;10127;47.780;9.606;2023-05-20T07:31:11;13.57;;;9.30;;
19929;SDS011;10127;47.780;9.606;2023-05-20T07:33:36;13.10;;;9.20;;
19929;SDS011;10127;47.780;9.606;2023-05-20T07:36:02;12.98;;;9.93;;
19929;SDS011;10127;47.780;9.606;2023-05-20T07:38:28;13.55;;;9.73;;
19929;SDS011;10127;47.780;9.606;2023-05-20T07:40:53;13.18;;;9.60;;
19929;SDS011;10127;47.780;9.606;2023-05-20T07:43:19;15.40;;;10.15;;
19929;SDS011;10127;47.780;9.606;2023-05-20T07:45:45;13.68;;;9.48;;
19929;SDS011;10127;47.780;9.606;2023-05-20T07:48:10;12.20;;;9.20;;
19929;SDS011;10127;47.780;9.606;2023-05-20T07:50:36;16.00;;;10.30;;
19929;SDS011;10127;47.780;9.606;2023-05-20T07:53:03;14.65;;;9.57;;
19929;SDS011;10127;47.780;9.606;2023-05-20T07:55:29;13.07;;;8.85;;
19929;SDS011;10127;47.780;9.606;2023-05-20T07:57:58;13.55;;;9.68;;
19929;SDS011;10127;47.780;9.606;2023-05-20T08:00:23;10.98;;;8.80;;
19929;SDS011;10127;47.780;9.606;2023-05-20T08:02:49;16.92;;;9.98;;
19929;SDS011;10127;47.780;9.606;2023-05-20T08:05:14;14.57;;;9.52;;
19929;SDS011;10127;47.780;9.606;2023-05-20T08:07:40;13.00;;;9.73;;
19929;SDS011;10127;47.780;9.606;2023-05-20T08:10:06;12.45;;;9.73;;
19929;SDS011;10127;47.780;9.606;2023-05-20T08:12:32;15.27;;;9.82;;
19929;SDS011;10127;47.780;9.606;2023-05-20T08:14:57;12.70;;;9.68;;
19929;SDS011;10127;47.780;9.606;2023-05-20T08:17:23;14.48;;;10.45;;
19929;SDS011;10127;47.780;9.606;2023-05-20T08:19:48;15.38;;;9.88;;
19929;SDS011;10127;47.780;9.606;2023-05-20T08:22:14;15.60;;;10.23;;
19929;SDS011;10127;47.780;9.606;2023-05-20T08:24:41;13.63;;;8.80;;
19929;SDS011;10127;47.780;9.606;2023-05-20T08:27:07;12.65;;;9.57;;
19929;SDS011;10127;47.780;9.606;2023-05-20T08:29:32;13.75;;;10.57;;
19929;SDS011;10127;47.780;9.606;2023-05-20T08:31:58;17.35;;;10.02;;
19929;SDS011;10127;47.780;9.606;2023-05-20T08:34:24;13.32;;;10.68;;
19929;SDS011;10127;47.780;9.606;2023-05-20T08:36:49;16.08;;;10.45;;
19929;SDS011;10127;47.780;9.606;2023-05-20T08:39:15;13.48;;;10.07;;
19929;SDS011;10127;47.780;9.606;2023-05-20T08:41:40;15.35;;;10.27;;
19929;SDS011;10127;47.780;9.606;2023-05-20T08:44:06;14.02;;;10.48;;
19929;SDS011;10127;47.780;9.606;2023-05-20T08:46:33;13.63;;;9.90;;
19929;SDS011;10127;47.780;9.606;2023-05-20T08:49:01;12.30;;;10.18;;
19929;SDS011;10127;47.780;9.606;2023-05-20T08:51:26;15.20;;;9.25;;
19929;SDS011;10127;47.780;9.606;2023-05-20T08:53:53;13.95;;;9.35;;
19929;SDS011;10127;47.780;9.606;2023-05-20T08:56:19;13.07;;;9.73;;
19929;SDS011;10127;47.780;9.606;2023-05-20T08:58:45;12.77;;;9.38;;
19929;SDS011;10127;47.780;9.606;2023-05-20T09:01:11;13.05;;;9.25;;
19929;SDS011;10127;47.780;9.606;2023-05-20T09:03:37;10.95;;;8.38;;
19929;SDS011;10127;47.780;9.606;2023-05-20T09:06:06;13.35;;;8.77;;
19929;SDS011;10127;47.780;9.606;2023-05-20T09:08:32;11.95;;;9.18;;
19929;SDS011;10127;47.780;9.606;2023-05-20T09:10:58;14.25;;;9.57;;
19929;SDS011;10127;47.780;9.606;2023-05-20T09:13:25;15.43;;;10.07;;
19929;SDS011;10127;47.780;9.606;2023-05-20T09:15:51;16.30;;;10.05;;
19929;SDS011;10127;47.780;9.606;2023-05-20T09:18:17;11.35;;;9.20;;
19929;SDS011;10127;47.780;9.606;2023-05-20T09:20:44;10.95;;;9.00;;
19929;SDS011;10127;47.780;9.606;2023-05-20T09:23:14;16.00;;;10.20;;
19929;SDS011;10127;47.780;9.606;2023-05-20T09:25:44;11.85;;;9.90;;
19929;SDS011;10127;47.780;9.606;2023-05-20T09:28:13;12.98;;;9.93;;
19929;SDS011;10127;47.780;9.606;2023-05-20T09:30:39;14.55;;;10.40;;
19929;SDS011;10127;47.780;9.606;2023-05-20T09:33:04;13.45;;;9.45;;
19929;SDS011;10127;47.780;9.606;2023-05-20T09:35:38;15.38;;;9.50;;
19929;SDS011;10127;47.780;9.606;2023-05-20T09:38:04;12.48;;;10.05;;
19929;SDS011;10127;47.780;9.606;2023-05-20T09:40:31;12.60;;;9.60;;
19929;SDS011;10127;47.780;9.606;2023-05-20T09:43:01;12.38;;;8.93;;
19929;SDS011;10127;47.780;9.606;2023-05-20T09:45:28;13.63;;;10.48;;
19929;SDS011;10127;47.780;9.606;2023-05-20T09:47:54;11.77;;;8.85;;
19929;SDS011;10127;47.780;9.606;2023-05-20T09:50:21;11.93;;;9.63;;
19929;SDS011;10127;47.780;9.606;2023-05-20T09:52:48;14.57;;;9.68;;
19929;SDS011;10127;47.780;9.606;2023-05-20T09:55:16;13.52;;;10.23;;
19929;SDS011;10127;47.780;9.606;2023-05-20T09:57:43;14.15;;;10.38;;
19929;SDS011;10127;47.780;9.606;2023-05-20T10:00:09;11.77;;;8.48;;
19929;SDS011;10127;47.780;9.606;2023-05-20T10:02:42;12.05;;;8.50;;
19929;SDS011;10127;47.780;9.606;2023-05-20T10:05:11;11.10;;;7.88;;
19929;SDS011;10127;47.780;9.606;2023-05-20T10:16:12;8.95;;;7.07;;
19929;SDS011;10127;47.780;9.606;2023-05-20T10:18:57;13.35;;;8.65;;
19929;SDS011;10127;47.780;9.606;2023-05-20T10:21:42;8.32;;;7.28;;
19929;SDS011;10127;47.780;9.606;2023-05-20T10:24:14;10.50;;;7.43;;
19929;SDS011;10127;47.780;9.606;2023-05-20T10:26:40;10.63;;;6.97;;
19929;SDS011;10127;47.780;9.606;2023-05-20T10:29:15;12.70;;;6.75;;
19929;SDS011;10127;47.780;9.606;2023-05-20T10:31:49;10.23;;;6.93;;
19929;SDS011;10127;47.780;9.606;2023-05-20T10:34:16;9.18;;;7.10;;
19929;SDS011;10127;47.780;9.606;2023-05-20T10:36:46;11.57;;;7.22;;
19929;SDS011;10127;47.780;9.606;2023-05-20T10:39:29;13.85;;;7.68;;
19929;SDS011;10127;47.780;9.606;2023-05-20T10:42:04;11.40;;;7.43;;
19929;SDS011;10127;47.780;9.606;2023-05-20T10:44:43;8.98;;;6.60;;
19929;SDS011;10127;47.780;9.606;2023-05-20T10:47:09;9.48;;;6.57;;
19929;SDS011;10127;47.780;9.606;2023-05-20T10:49:35;8.13;;;6.38;;
19929;SDS011;10127;47.780;9.606;2023-05-20T10:52:06;10.77;;;6.88;;
19929;SDS011;10127;47.780;9.606;2023-05-20T10:54:35;8.20;;;6.47;;
19929;SDS011;10127;47.780;9.606;2023-05-20T10:57:04;10.18;;;7.93;;
19929;SDS011;10127;47.780;9.606;2023-05-20T10:59:32;9.70;;;7.13;;
19929;SDS011;10127;47.780;9.606;2023-05-20T11:01:58;9.65;;;7.68;;
19929;SDS011;10127;47.780;9.606;2023-05-20T11:04:25;9.00;;;7.53;;
19929;SDS011;10127;47.780;9.606;2023-05-20T11:06:52;10.13;;;6.80;;
19929;SDS011;10127;47.780;9.606;2023-05-20T11:09:24;9.50;;;6.90;;
19929;SDS011;10127;47.780;9.606;2023-05-20T11:11:50;8.18;;;6.75;;
19929;SDS011;10127;47.780;9.606;2023-05-20T11:14:26;9.35;;;7.25;;
19929;SDS011;10127;47.780;9.606;2023-05-20T11:16:54;8.23;;;6.82;;
19929;SDS011;10127;47.780;9.606;2023-05-20T11:19:21;11.80;;;7.22;;
19929;SDS011;10127;47.780;9.606;2023-05-20T11:21:47;17.38;;;7.15;;
19929;SDS011;10127;47.780;9.606;2023-05-20T11:24:13;10.70;;;6.70;;
19929;SDS011;10127;47.780;9.606;2023-05-20T11:26:39;8.90;;;7.10;;
19929;SDS011;10127;47.780;9.606;2023-05-20T11:29:05;8.05;;;7.05;;
19929;SDS011;10127;47.780;9.606;2023-05-20T11:31:30;9.88;;;6.72;;
19929;SDS011;10127;47.780;9.606;2023-05-20T11:33:59;11.05;;;6.63;;
19929;SDS011;10127;47.780;9.606;2023-05-20T11:36:26;10.52;;;6.70;;
19929;SDS011;10127;47.780;9.606;2023-05-20T11:38:53;11.85;;;7.65;;
19929;SDS011;10127;47.780;9.606;2023-05-20T11:41:23;12.32;;;7.97;;
19929;SDS011;10127;47.780;9.606;2023-05-20T11:43:59;11.77;;;6.85;;
19929;SDS011;10127;47.780;9.606;2023-05-20T11:46:25;10.55;;;6.82;;
19929;SDS011;10127;47.780;9.606;2023-05-20T11:48:54;12.13;;;7.32;;
19929;SDS011;10127;47.780;9.606;2023-05-20T11:51:27;10.20;;;7.15;;
19929;SDS011;10127;47.780;9.606;2023-05-20T11:54:00;12.38;;;7.93;;
19929;SDS011;10127;47.780;9.606;2023-05-20T11:56:31;8.77;;;7.00;;
19929;SDS011;10127;47.780;9.606;2023-05-20T11:58:59;9.27;;;6.80;;
19929;SDS011;10127;47.780;9.606;2023-05-20T12:01:25;10.27;;;7.35;;
19929;SDS011;10127;47.780;9.606;2023-05-20T12:03:52;9.23;;;6.97;;
19929;SDS011;10127;47.780;9.606;2023-05-20T12:06:17;12.52;;;6.70;;
19929;SDS011;10127;47.780;9.606;2023-05-20T12:08:43;9.68;;;7.60;;
19929;SDS011;10127;47.780;9.606;2023-05-20T12:11:10;7.65;;;6.13;;
19929;SDS011;10127;47.780;9.606;2023-05-20T12:13:36;10.40;;;7.05;;
19929;SDS011;10127;47.780;9.606;2023-05-20T12:16:01;9.00;;;7.30;;
19929;SDS011;10127;47.780;9.606;2023-05-20T12:18:29;8.52;;;7.20;;
19929;SDS011;10127;47.780;9.606;2023-05-20T12:20:55;10.30;;;6.50;;
19929;SDS011;10127;47.780;9.606;2023-05-20T12:23:21;10.10;;;8.13;;
19929;SDS011;10127;47.780;9.606;2023-05-20T12:25:47;11.18;;;7.30;;
19929;SDS011;10127;47.780;9.606;2023-05-20T12:28:13;10.48;;;7.10;;
19929;SDS011;10127;47.780;9.606;2023-05-20T12:30:40;11.25;;;7.43;;
19929;SDS011;10127;47.780;9.606;2023-05-20T12:33:06;10.80;;;6.78;;
19929;SDS011;10127;47.780;9.606;2023-05-20T12:35:37;12.13;;;6.95;;
19929;SDS011;10127;47.780;9.606;2023-05-20T12:38:03;9.93;;;6.65;;
19929;SDS011;10127;47.780;9.606;2023-05-20T12:40:30;12.20;;;7.30;;
19929;SDS011;10127;47.780;9.606;2023-05-20T12:42:56;11.60;;;7.00;;
19929;SDS011;10127;47.780;9.606;2023-05-20T12:45:22;9.60;;;6.47;;
19929;SDS011;10127;47.780;9.606;2023-05-20T12:47:48;12.35;;;6.40;;
19929;SDS011;10127;47.780;9.606;2023-05-20T12:50:15;11.45;;;6.65;;
19929;SDS011;10127;47.780;9.606;2023-05-20T12:52:40;9.43;;;6.45;;
19929;SDS011;10127;47.780;9.606;2023-05-20T12:55:06;13.63;;;7.00;;
19929;SDS011;10127;47.780;9.606;2023-05-20T12:57:40;9.40;;;6.35;;
19929;SDS011;10127;47.780;9.606;2023-05-20T13:00:08;11.55;;;7.28;;
19929;SDS011;10127;47.780;9.606;2023-05-20T13:02:35;8.63;;;6.53;;
19929;SDS011;10127;47.780;9.606;2023-05-20T13:05:01;10.85;;;7.03;;
19929;SDS011;10127;47.780;9.606;2023-05-20T13:07:27;8.88;;;6.88;;
19929;SDS011;10127;47.780;9.606;2023-05-20T13:09:52;8.80;;;7.45;;
19929;SDS011;10127;47.780;9.606;2023-05-20T13:12:18;11.30;;;7.20;;
19929;SDS011;10127;47.780;9.606;2023-05-20T13:14:43;9.88;;;7.13;;
19929;SDS011;10127;47.780;9.606;2023-05-20T13:17:09;9.13;;;6.28;;
19929;SDS011;10127;47.780;9.606;2023-05-20T13:19:35;11.20;;;6.80;;
19929;SDS011;10127;47.780;9.606;2023-05-20T13:22:02;8.98;;;7.18;;
19929;SDS011;10127;47.780;9.606;2023-05-20T13:24:28;9.10;;;6.70;;
19929;SDS011;10127;47.780;9.606;2023-05-20T13:26:53;7.45;;;5.63;;
19929;SDS011;10127;47.780;9.606;2023-05-20T13:29:19;10.05;;;6.70;;
19929;SDS011;10127;47.780;9.606;2023-05-20T13:31:45;8.65;;;6.55;;
19929;SDS011;10127;47.780;9.606;2023-05-20T13:34:11;10.30;;;6.38;;
19929;SDS011;10127;47.780;9.606;2023-05-20T13:36:37;12.18;;;5.95;;
19929;SDS011;10127;47.780;9.606;2023-05-20T13:39:04;7.82;;;6.32;;
19929;SDS011;10127;47.780;9.606;2023-05-20T13:41:30;9.45;;;6.07;;
19929;SDS011;10127;47.780;9.606;2023-05-20T13:43:56;7.78;;;5.80;;
19929;SDS011;10127;47.780;9.606;2023-05-20T13:46:21;8.30;;;6.63;;
19929;SDS011;10127;47.780;9.606;2023-05-20T13:48:47;8.13;;;5.75;;
19929;SDS011;10127;47.780;9.606;2023-05-20T13:51:13;7.30;;;5.63;;
19929;SDS011;10127;47.780;9.606;2023-05-20T13:53:38;9.15;;;6.45;;
19929;SDS011;10127;47.780;9.606;2023-05-20T13:56:04;8.52;;;6.55;;
19929;SDS011;10127;47.780;9.606;2023-05-20T13:58:33;8.27;;;6.15;;
19929;SDS011;10127;47.780;9.606;2023-05-20T14:00:59;7.10;;;4.72;;
19929;SDS011;10127;47.780;9.606;2023-05-20T14:03:25;9.43;;;4.25;;
19929;SDS011;10127;47.780;9.606;2023-05-20T14:05:51;5.93;;;4.45;;
19929;SDS011;10127;47.780;9.606;2023-05-20T14:08:16;8.52;;;4.72;;
19929;SDS011;10127;47.780;9.606;2023-05-20T14:10:42;9.60;;;4.88;;
19929;SDS011;10127;47.780;9.606;2023-05-20T14:13:08;6.63;;;4.00;;
19929;SDS011;10127;47.780;9.606;2023-05-20T14:15:34;5.13;;;4.15;;
19929;SDS011;10127;47.780;9.606;2023-05-20T14:18:00;7.45;;;4.25;;
19929;SDS011;10127;47.780;9.606;2023-05-20T14:20:26;5.93;;;4.43;;
19929;SDS011;10127;47.780;9.606;2023-05-20T14:22:51;12.20;;;4.97;;
19929;SDS011;10127;47.780;9.606;2023-05-20T14:25:17;7.63;;;4.40;;
19929;SDS011;10127;47.780;9.606;2023-05-20T14:27:43;9.65;;;5.45;;
19929;SDS011;10127;47.780;9.606;2023-05-20T14:30:09;8.15;;;5.45;;
19929;SDS011;10127;47.780;9.606;2023-05-20T14:32:35;8.02;;;4.88;;
19929;SDS011;10127;47.780;9.606;2023-05-20T14:35:00;7.53;;;5.55;;
19929;SDS011;10127;47.780;9.606;2023-05-20T14:37:26;8.90;;;5.43;;
19929;SDS011;10127;47.780;9.606;2023-05-20T14:39:54;9.05;;;5.78;;
19929;SDS011;10127;47.780;9.606;2023-05-20T14:42:20;6.78;;;5.38;;
19929;SDS011;10127;47.780;9.606;2023-05-20T14:44:46;8.18;;;5.53;;
19929;SDS011;10127;47.780;9.606;2023-05-20T14:47:11;8.18;;;5.40;;
19929;SDS011;10127;47.780;9.606;2023-05-20T14:49:40;7.90;;;5.30;;
19929;SDS011;10127;47.780;9.606;2023-05-20T14:52:08;7.03;;;5.50;;
19929;SDS011;10127;47.780;9.606;2023-05-20T14:54:34;9.65;;;5.40;;
19929;SDS011;10127;47.780;9.606;2023-05-20T14:56:59;7.78;;;5.40;;
19929;SDS011;10127;47.780;9.606;2023-05-20T14:59:25;6.95;;;5.60;;
19929;SDS011;10127;47.780;9.606;2023-05-20T15:01:50;7.20;;;5.28;;
19929;SDS011;10127;47.780;9.606;2023-05-20T15:04:16;6.40;;;5.13;;
19929;SDS011;10127;47.780;9.606;2023-05-20T15:06:41;6.90;;;5.20;;